createdAt,value
2023-03-31T00:01:01.753Z,96990.84
2023-03-31T00:03:29.464Z,96987.75
2023-03-31T00:05:58.907Z,96982.41
2023-03-31T00:08:30.099Z,96984.88
2023-03-31T00:11:02.453Z,96976.81
2023-03-31T00:13:31.250Z,96973.72
2023-03-31T00:16:02.680Z,96973.53
2023-03-31T00:18:30.963Z,96970.44
2023-03-31T00:21:14.281Z,96965.06
2023-03-31T00:23:42.125Z,96963.84
2023-03-31T00:26:09.697Z,96957.63
2023-03-31T00:28:37.210Z,96946.09
2023-03-31T00:31:04.802Z,96946.91
2023-03-31T00:33:32.396Z,96948.56
2023-03-31T00:36:02.530Z,96938.25
2023-03-31T00:38:30.732Z,96939.72
2023-03-31T00:40:59.941Z,96928.75
2023-03-31T00:43:35.668Z,96918.44
2023-03-31T00:46:24.502Z,96914.72
2023-03-31T00:48:57.596Z,96918.25
2023-03-31T00:51:29.601Z,96927.31
2023-03-31T00:54:01.929Z,96918.66
2023-03-31T00:56:35.133Z,96920.50
2023-03-31T00:59:07.849Z,96901.94
2023-03-31T01:01:36.519Z,96907.72
2023-03-31T01:04:07.653Z,96905.44
2023-03-31T01:06:57.228Z,96892.44
2023-03-31T01:09:25.664Z,96881.50
2023-03-31T01:11:53.470Z,96887.28
2023-03-31T01:14:20.954Z,96882.75
2023-03-31T01:16:48.509Z,96880.09
2023-03-31T01:19:49.837Z,96879.44
2023-03-31T01:22:45.810Z,96861.72
2023-03-31T01:25:21.803Z,96857.22
2023-03-31T01:28:15.632Z,96856.97
2023-03-31T01:31:34.610Z,96858.63
2023-03-31T01:34:25.034Z,96859.66
2023-03-31T01:37:17.037Z,96863.63
2023-03-31T01:40:14.361Z,96862.53
2023-03-31T01:42:52.728Z,96847.06
2023-03-31T01:45:39.411Z,96849.53
2023-03-31T01:48:21.114Z,96847.66
2023-03-31T01:50:56.427Z,96857.38
2023-03-31T01:53:41.673Z,96857.56
2023-03-31T01:56:48.467Z,96860.66
2023-03-31T01:59:34.212Z,96864.38
2023-03-31T02:02:19.960Z,96860.06
2023-03-31T02:04:57.031Z,96857.00
2023-03-31T02:07:48.348Z,96853.28
2023-03-31T02:10:18.375Z,96842.16
2023-03-31T02:12:48.537Z,96842.59
2023-03-31T02:15:25.287Z,96843.81
2023-03-31T02:17:58.939Z,96828.75
2023-03-31T02:20:29.398Z,96825.84
2023-03-31T02:22:58.489Z,96822.75
2023-03-31T02:25:35.973Z,96821.53
2023-03-31T02:28:12.761Z,96814.50
2023-03-31T02:31:09.670Z,96808.53
2023-03-31T02:33:37.476Z,96799.28
2023-03-31T02:36:06.265Z,96796.59
2023-03-31T02:38:41.995Z,96781.34
2023-03-31T02:41:10.183Z,96781.16
2023-03-31T02:43:37.959Z,96770.22
2023-03-31T02:46:05.842Z,96753.91
2023-03-31T02:48:40.134Z,96742.16
2023-03-31T02:51:10.444Z,96727.72
2023-03-31T02:53:47.137Z,96725.22
2023-03-31T02:56:59.733Z,96720.47
2023-03-31T02:59:39.165Z,96712.44
2023-03-31T03:02:27.231Z,96712.63
2023-03-31T03:05:26.027Z,96692.84
2023-03-31T03:08:35.584Z,96673.94
2023-03-31T03:11:32.067Z,96663.63
2023-03-31T03:14:23.557Z,96657.84
2023-03-31T03:17:23.159Z,96645.50
2023-03-31T03:19:58.812Z,96637.88
2023-03-31T03:22:26.326Z,96624.53
2023-03-31T03:24:54.126Z,96622.09
2023-03-31T03:27:24.500Z,96619.84
2023-03-31T03:29:52.034Z,96625.84
2023-03-31T03:32:19.584Z,96619.25
2023-03-31T03:34:47.068Z,96610.22
2023-03-31T03:37:14.590Z,96600.53
2023-03-31T03:39:42.084Z,96592.91
2023-03-31T03:42:09.615Z,96589.22
2023-03-31T03:44:37.117Z,96579.09
2023-03-31T03:47:04.904Z,96566.13
2023-03-31T03:49:32.399Z,96558.47
2023-03-31T03:52:00.038Z,96546.31
2023-03-31T03:54:27.587Z,96535.38
2023-03-31T03:56:55.132Z,96523.06
2023-03-31T03:59:22.975Z,96511.31
2023-03-31T04:01:50.660Z,96509.91
2023-03-31T04:04:18.706Z,96491.41
2023-03-31T04:06:46.243Z,96491.81
2023-03-31T04:09:13.754Z,96488.34
2023-03-31T04:11:41.304Z,96490.03
2023-03-31T04:14:08.896Z,96491.88
2023-03-31T04:16:36.565Z,96488.19
2023-03-31T04:19:05.128Z,96489.00
2023-03-31T04:21:34.830Z,96497.63
2023-03-31T04:24:04.789Z,96493.69
2023-03-31T04:26:43.916Z,96485.47
2023-03-31T04:29:14.136Z,96485.25
2023-03-31T04:31:43.468Z,96481.75
2023-03-31T04:34:14.635Z,96472.69
2023-03-31T04:36:49.299Z,96474.72
2023-03-31T04:39:26.576Z,96470.59
2023-03-31T04:41:54.642Z,96471.38
2023-03-31T04:44:22.339Z,96460.44
2023-03-31T04:46:49.948Z,96455.06
2023-03-31T04:49:17.476Z,96453.88
2023-03-31T04:51:45.156Z,96476.31
2023-03-31T04:54:13.045Z,96476.94
2023-03-31T04:56:40.575Z,96489.53
2023-03-31T04:59:08.577Z,96457.59
2023-03-31T05:01:36.458Z,96471.59
2023-03-31T05:04:05.453Z,96473.22
2023-03-31T05:06:33.554Z,96473.00
2023-03-31T05:09:01.123Z,96469.94
2023-03-31T05:11:28.980Z,96482.94
2023-03-31T05:13:56.706Z,96487.72
2023-03-31T05:16:24.235Z,96503.19
2023-03-31T05:18:51.977Z,96515.56
2023-03-31T05:21:21.459Z,96513.13
2023-03-31T05:23:49.476Z,96517.47
2023-03-31T05:26:17.133Z,96515.19
2023-03-31T05:28:44.693Z,96508.47
2023-03-31T05:31:13.223Z,96493.88
2023-03-31T05:33:42.128Z,96480.31
2023-03-31T05:36:12.942Z,96471.28
2023-03-31T05:38:41.108Z,96459.75
2023-03-31T05:41:10.900Z,96462.81
2023-03-31T05:43:39.724Z,96461.16
2023-03-31T05:46:08.059Z,96458.09
2023-03-31T05:48:37.972Z,96464.69
2023-03-31T05:51:06.006Z,96453.16
2023-03-31T05:53:34.090Z,96431.34
2023-03-31T05:56:04.369Z,96438.34
2023-03-31T05:58:33.576Z,96426.19
2023-03-31T06:01:11.343Z,96412.38
2023-03-31T06:03:42.772Z,96410.13
2023-03-31T06:06:12.988Z,96400.63
2023-03-31T06:08:41.416Z,96398.16
2023-03-31T06:11:12.384Z,96398.41
2023-03-31T06:13:41.196Z,96401.69
2023-03-31T06:16:10.991Z,96381.91
2023-03-31T06:18:39.601Z,96370.19
2023-03-31T06:21:08.040Z,96369.53
2023-03-31T06:23:35.860Z,96381.28
2023-03-31T06:26:07.071Z,96377.97
2023-03-31T06:28:36.519Z,96377.75
2023-03-31T06:31:13.306Z,96378.16
2023-03-31T06:33:43.364Z,96368.47
2023-03-31T06:36:14.722Z,96368.25
2023-03-31T06:38:43.151Z,96371.53
2023-03-31T06:41:13.712Z,96375.69
2023-03-31T06:43:41.425Z,96375.69
2023-03-31T06:46:09.601Z,96385.56
2023-03-31T06:48:37.427Z,96394.03
2023-03-31T06:51:07.224Z,96412.34
2023-03-31T06:53:35.742Z,96420.97
2023-03-31T06:56:04.950Z,96436.44
2023-03-31T06:58:32.848Z,96424.94
2023-03-31T07:03:32.873Z,96434.41
2023-03-31T07:06:01.169Z,96443.88
2023-03-31T07:08:28.792Z,96395.53
2023-03-31T07:10:59.768Z,96353.16
2023-03-31T07:13:28.750Z,96341.03
2023-03-31T07:15:56.630Z,96333.59
2023-03-31T07:18:26.092Z,96316.28
2023-03-31T07:20:53.938Z,96328.19
2023-03-31T07:23:21.588Z,96323.25
2023-03-31T07:25:49.489Z,96337.69
2023-03-31T07:28:17.300Z,96339.91
2023-03-31T07:30:44.877Z,96337.34
2023-03-31T07:33:12.527Z,96327.47
2023-03-31T07:35:41.685Z,96312.59
2023-03-31T07:38:11.128Z,96308.72
2023-03-31T07:40:40.145Z,96295.53
2023-03-31T07:43:08.509Z,96321.81
2023-03-31T07:45:36.269Z,96324.69
2023-03-31T07:48:03.921Z,96311.72
2023-03-31T07:50:31.832Z,96331.75
2023-03-31T07:53:01.743Z,96333.56
2023-03-31T07:55:29.483Z,96328.47
2023-03-31T07:57:57.346Z,96329.22
2023-03-31T08:00:25.127Z,96324.38
2023-03-31T08:02:52.913Z,96325.47
2023-03-31T08:05:21.839Z,96324.88
2023-03-31T08:07:50.777Z,96327.16
2023-03-31T08:10:26.225Z,96322.00
2023-03-31T08:12:54.061Z,96323.69
2023-03-31T08:15:22.356Z,96317.00
2023-03-31T08:17:49.950Z,96315.47
2023-03-31T08:20:17.661Z,96313.22
2023-03-31T08:22:45.230Z,96323.66
2023-03-31T08:25:12.812Z,96319.50
2023-03-31T08:27:41.104Z,96314.75
2023-03-31T08:30:11.478Z,96312.34
2023-03-31T08:32:39.088Z,96313.50
2023-03-31T08:35:08.444Z,96309.16
2023-03-31T08:37:37.412Z,96314.09
2023-03-31T08:40:09.487Z,96289.56
2023-03-31T08:42:50.079Z,96291.22
2023-03-31T08:45:37.265Z,96304.03
2023-03-31T08:48:19.604Z,96308.13
2023-03-31T08:50:54.157Z,96315.28
2023-03-31T08:53:39.276Z,96290.91
2023-03-31T08:56:16.032Z,96312.47
2023-03-31T08:58:52.701Z,96298.19
2023-03-31T09:01:55.777Z,96300.63
2023-03-31T09:04:32.888Z,96311.59
2023-03-31T09:07:47.065Z,96284.41
2023-03-31T09:10:37.751Z,96313.00
2023-03-31T09:13:55.375Z,96282.22
2023-03-31T09:16:59.818Z,96289.31
2023-03-31T09:19:45.380Z,96279.09
2023-03-31T09:22:25.522Z,96271.13
2023-03-31T09:25:10.229Z,96284.84
2023-03-31T09:27:42.433Z,96281.69
2023-03-31T09:30:33.592Z,96296.38
2023-03-31T09:33:16.869Z,96266.50
2023-03-31T09:35:46.282Z,96270.00
2023-03-31T09:38:16.162Z,96269.56
2023-03-31T09:40:44.092Z,96253.66
2023-03-31T09:43:31.375Z,96271.84
2023-03-31T09:46:14.948Z,96272.66
2023-03-31T09:49:02.413Z,96253.31
2023-03-31T09:51:37.143Z,96262.72
2023-03-31T09:54:19.866Z,96264.53
2023-03-31T09:56:53.400Z,96250.75
2023-03-31T09:59:23.484Z,96256.88
2023-03-31T10:01:56.721Z,96245.44
2023-03-31T10:04:33.346Z,96261.91
2023-03-31T10:07:04.046Z,96242.63
2023-03-31T10:09:34.191Z,96235.31
2023-03-31T10:12:20.248Z,96257.22
2023-03-31T10:14:51.020Z,96273.66
2023-03-31T10:17:27.645Z,96245.44
2023-03-31T10:20:08.202Z,96247.56
2023-03-31T10:22:44.754Z,96239.28
2023-03-31T10:25:23.963Z,96230.06
2023-03-31T10:27:56.690Z,96225.25
2023-03-31T10:30:35.398Z,96238.34
2023-03-31T10:33:22.777Z,96224.47
2023-03-31T10:35:58.347Z,96242.56
2023-03-31T10:38:45.057Z,96217.09
2023-03-31T10:41:18.456Z,96229.34
2023-03-31T10:43:55.589Z,96205.41
2023-03-31T10:46:50.122Z,96207.06
2023-03-31T10:49:27.483Z,96195.50
2023-03-31T10:52:00.976Z,96192.69
2023-03-31T10:54:28.473Z,96209.75
2023-03-31T10:57:03.208Z,96200.25
2023-03-31T11:00:13.184Z,96201.81
2023-03-31T11:03:26.232Z,96167.59
2023-03-31T11:06:31.830Z,96190.81
2023-03-31T11:09:22.508Z,96346.88
2023-03-31T11:12:12.157Z,96231.75
2023-03-31T11:15:21.742Z,96269.31
2023-03-31T11:18:37.483Z,96340.72
2023-03-31T11:21:45.376Z,96304.09
2023-03-31T11:25:10.055Z,96315.41
2023-03-31T11:27:53.713Z,96314.16
2023-03-31T11:30:44.266Z,96317.88
2023-03-31T11:33:47.987Z,96303.91
2023-03-31T11:36:28.751Z,96299.81
2023-03-31T11:39:21.994Z,96294.06
2023-03-31T11:41:58.306Z,96287.72
2023-03-31T11:44:32.344Z,96278.69
2023-03-31T11:47:17.194Z,96264.69
2023-03-31T11:49:55.934Z,96255.88
2023-03-31T11:52:34.828Z,96266.34
2023-03-31T11:55:22.030Z,96242.75
2023-03-31T11:58:08.450Z,96247.66
2023-03-31T12:00:51.749Z,96251.97
2023-03-31T12:04:01.880Z,96225.28
2023-03-31T12:06:35.142Z,96233.66
2023-03-31T12:09:27.499Z,96227.22
2023-03-31T12:12:05.133Z,96227.97
2023-03-31T12:14:51.401Z,96221.47
2023-03-31T12:17:26.524Z,96234.31
2023-03-31T12:20:02.131Z,96231.81
2023-03-31T12:22:39.538Z,96223.56
2023-03-31T12:25:16.495Z,96204.03
2023-03-31T12:27:51.418Z,96210.31
2023-03-31T12:30:34.947Z,96200.94
2023-03-31T12:33:27.474Z,96223.31
2023-03-31T12:36:12.962Z,96201.78
2023-03-31T12:38:58.258Z,96189.56
2023-03-31T12:41:40.794Z,96189.41
2023-03-31T12:44:53.520Z,96197.44
2023-03-31T12:47:38.115Z,96184.09
2023-03-31T12:50:11.689Z,96174.09
2023-03-31T12:53:20.789Z,96159.88
2023-03-31T12:55:54.784Z,96160.91
2023-03-31T12:58:26.585Z,96151.94
2023-03-31T13:01:07.682Z,96177.84
2023-03-31T13:04:21.373Z,96199.53
2023-03-31T13:06:54.465Z,96197.53
2023-03-31T13:09:52.072Z,96203.56
2023-03-31T13:12:23.408Z,96175.44
2023-03-31T13:14:54.404Z,96181.91
2023-03-31T13:17:38.318Z,96197.00
2023-03-31T13:20:33.204Z,96161.56
2023-03-31T13:23:25.506Z,96148.66
2023-03-31T13:25:58.564Z,96155.66
2023-03-31T13:28:33.298Z,96145.06
2023-03-31T13:31:03.588Z,96147.28
2023-03-31T13:33:58.385Z,96140.78
2023-03-31T13:36:50.898Z,96129.03
2023-03-31T13:40:00.391Z,96118.72
2023-03-31T13:42:52.650Z,96139.38
2023-03-31T13:45:48.804Z,96119.38
2023-03-31T13:48:54.919Z,96130.78
2023-03-31T13:51:58.505Z,96132.47
2023-03-31T13:55:06.959Z,96117.03
2023-03-31T13:58:33.521Z,96120.47
2023-03-31T14:01:53.231Z,96119.75
2023-03-31T14:04:54.049Z,96120.69
2023-03-31T14:07:33.320Z,96132.97
2023-03-31T14:10:02.777Z,96116.19
2023-03-31T14:12:35.686Z,96124.53
2023-03-31T14:15:05.809Z,96132.69
2023-03-31T14:17:40.790Z,96129.94
2023-03-31T14:20:33.338Z,96146.75
2023-03-31T14:23:14.960Z,96150.38
2023-03-31T14:26:02.582Z,96134.28
2023-03-31T14:29:11.440Z,96139.56
2023-03-31T14:32:12.722Z,96127.53
2023-03-31T14:34:52.578Z,96123.19
2023-03-31T14:37:22.686Z,96134.25
2023-03-31T14:39:55.024Z,96121.28
2023-03-31T14:42:29.448Z,96121.34
2023-03-31T14:45:02.751Z,96122.69
2023-03-31T14:47:30.565Z,96112.41
2023-03-31T14:50:18.727Z,96127.78
2023-03-31T14:52:55.545Z,96120.38
2023-03-31T14:55:35.641Z,96119.19
2023-03-31T14:58:23.643Z,96109.00
2023-03-31T15:00:53.108Z,96097.69
2023-03-31T15:03:20.882Z,96094.16
2023-03-31T15:05:49.878Z,96096.91
2023-03-31T15:08:22.768Z,96098.69
2023-03-31T15:11:02.472Z,96097.06
2023-03-31T15:14:03.740Z,96095.47
2023-03-31T15:16:43.356Z,96095.81
2023-03-31T15:19:24.883Z,96098.44
2023-03-31T15:22:18.977Z,96090.00
2023-03-31T15:24:46.981Z,96087.81
2023-03-31T15:27:37.964Z,96086.44
2023-03-31T15:30:14.349Z,96083.53
2023-03-31T15:32:42.219Z,96084.47
2023-03-31T15:35:35.614Z,96086.72
2023-03-31T15:38:06.233Z,96093.94
2023-03-31T15:40:40.854Z,96094.97
2023-03-31T15:43:31.300Z,96093.47
2023-03-31T15:46:02.360Z,96100.13
2023-03-31T15:48:48.569Z,96087.44
2023-03-31T15:51:32.342Z,96088.97
2023-03-31T15:53:59.921Z,96099.16
2023-03-31T15:56:38.142Z,96095.44
2023-03-31T15:59:07.036Z,96098.84
2023-03-31T16:01:44.151Z,96112.72
2023-03-31T16:04:14.597Z,96111.56
2023-03-31T16:07:05.110Z,96131.59
2023-03-31T16:09:49.289Z,96133.13
2023-03-31T16:12:28.964Z,96140.59
2023-03-31T16:15:14.096Z,96148.56
2023-03-31T16:18:10.077Z,96158.44
2023-03-31T16:20:53.359Z,96168.81
2023-03-31T16:23:31.515Z,96164.06
2023-03-31T16:26:00.331Z,96156.81
2023-03-31T16:28:37.252Z,96151.53
2023-03-31T16:31:25.885Z,96155.88
2023-03-31T16:33:56.658Z,96169.81
2023-03-31T16:36:24.317Z,96155.38
2023-03-31T16:38:53.961Z,96159.09
2023-03-31T16:41:23.402Z,96148.84
2023-03-31T16:43:54.683Z,96151.59
2023-03-31T16:46:23.682Z,96141.84
2023-03-31T16:48:52.713Z,96133.56
2023-03-31T16:51:21.359Z,96132.31
2023-03-31T16:53:48.970Z,96124.88
2023-03-31T16:56:16.681Z,96128.66
2023-03-31T16:58:45.010Z,96125.25
2023-03-31T17:01:12.737Z,96128.66
2023-03-31T17:03:41.996Z,96136.34
2023-03-31T17:06:12.823Z,96124.13
2023-03-31T17:08:40.657Z,96127.78
2023-03-31T17:11:12.541Z,96134.25
2023-03-31T17:13:42.912Z,96138.59
2023-03-31T17:18:42.656Z,96150.13
2023-03-31T17:21:13.757Z,96147.59
2023-03-31T17:23:42.416Z,96143.41
2023-03-31T17:26:12.547Z,96153.31
2023-03-31T17:28:41.006Z,96151.09
2023-03-31T17:31:20.574Z,96155.13
2023-03-31T17:33:48.390Z,96147.91
2023-03-31T17:36:16.636Z,96157.00
2023-03-31T17:38:44.781Z,96172.22
2023-03-31T17:41:13.625Z,96187.34
2023-03-31T17:43:46.801Z,96210.31
2023-03-31T17:46:15.331Z,96228.91
2023-03-31T17:48:43.613Z,96234.19
2023-03-31T17:51:16.239Z,96208.13
2023-03-31T17:53:46.216Z,96193.41
2023-03-31T17:56:15.495Z,96185.38
2023-03-31T17:58:43.810Z,96189.53
2023-03-31T18:01:12.589Z,96191.00
2023-03-31T18:03:41.215Z,96189.59
2023-03-31T18:06:12.399Z,96187.72
2023-03-31T18:08:41.669Z,96167.66
2023-03-31T18:11:10.424Z,96175.69
2023-03-31T18:13:37.944Z,96185.19
2023-03-31T18:16:09.446Z,96188.69
2023-03-31T18:18:37.924Z,96194.59
2023-03-31T18:21:07.828Z,96194.44
2023-03-31T18:23:36.313Z,96204.53
2023-03-31T18:26:08.818Z,96200.84
2023-03-31T18:28:36.618Z,96204.38
2023-03-31T18:31:07.513Z,96197.19
2023-03-31T18:33:35.642Z,96196.16
2023-03-31T18:36:03.619Z,96191.63
2023-03-31T18:38:32.532Z,96189.84
2023-03-31T18:41:00.389Z,96178.13
2023-03-31T18:43:27.920Z,96187.13
2023-03-31T18:45:58.407Z,96178.47
2023-03-31T18:48:25.892Z,96176.09
2023-03-31T18:50:54.003Z,96182.66
2023-03-31T18:53:24.143Z,96190.84
2023-03-31T18:55:57.801Z,96191.47
2023-03-31T18:58:28.748Z,96190.47
2023-03-31T19:00:57.860Z,96195.19
2023-03-31T19:03:26.821Z,96197.91
2023-03-31T19:06:22.347Z,96189.69
2023-03-31T19:08:50.292Z,96195.44
2023-03-31T19:11:17.782Z,96195.84
2023-03-31T19:13:45.453Z,96182.50
2023-03-31T19:16:14.318Z,96201.78
2023-03-31T19:18:43.511Z,96190.09
2023-03-31T19:21:11.748Z,96190.09
2023-03-31T19:23:39.577Z,96176.53
2023-03-31T19:26:07.643Z,96171.41
2023-03-31T19:28:35.501Z,96168.09
2023-03-31T19:31:04.705Z,96166.88
2023-03-31T19:33:32.792Z,96167.91
2023-03-31T19:36:00.412Z,96172.25
2023-03-31T19:38:31.853Z,96171.59
2023-03-31T19:41:00.062Z,96169.13
2023-03-31T19:43:29.596Z,96174.44
2023-03-31T19:46:00.366Z,96180.22
2023-03-31T19:48:32.012Z,96186.53
2023-03-31T19:51:04.042Z,96190.41
2023-03-31T19:53:32.557Z,96180.69
2023-03-31T19:56:09.906Z,96183.59
2023-03-31T19:58:38.221Z,96196.72
2023-03-31T20:01:23.733Z,96206.59
2023-03-31T20:03:52.991Z,96191.38
2023-03-31T20:06:24.788Z,96200.66
2023-03-31T20:08:58.741Z,96195.16
2023-03-31T20:11:28.713Z,96195.28
2023-03-31T20:13:57.158Z,96196.72
2023-03-31T20:16:28.015Z,96200.81
2023-03-31T20:18:59.309Z,96201.84
2023-03-31T20:21:29.624Z,96196.50
2023-03-31T20:23:58.694Z,96202.91
2023-03-31T20:26:29.597Z,96195.09
2023-03-31T20:28:59.148Z,96203.31
2023-03-31T20:31:30.092Z,96197.34
2023-03-31T20:33:58.313Z,96199.84
2023-03-31T20:36:32.022Z,96188.50
2023-03-31T20:39:02.651Z,96196.53
2023-03-31T20:41:31.015Z,96196.41
2023-03-31T20:43:59.190Z,96195.44
2023-03-31T20:46:27.289Z,96199.94
2023-03-31T20:48:57.051Z,96209.81
2023-03-31T20:51:30.622Z,96212.72
2023-03-31T20:54:00.215Z,96212.28
2023-03-31T20:56:31.593Z,96214.16
2023-03-31T20:58:59.984Z,96212.91
2023-03-31T21:01:30.884Z,96216.22
2023-03-31T21:04:01.050Z,96201.84
2023-03-31T21:06:32.626Z,96204.09
2023-03-31T21:09:00.448Z,96215.78
2023-03-31T21:11:29.364Z,96209.19
2023-03-31T21:13:56.868Z,96209.59
2023-03-31T21:16:25.245Z,96212.88
2023-03-31T21:18:54.880Z,96211.66
2023-03-31T21:21:24.388Z,96209.00
2023-03-31T21:23:53.000Z,96206.31
2023-03-31T21:26:21.951Z,96204.03
2023-03-31T21:28:54.194Z,96204.66
2023-03-31T21:31:24.949Z,96206.69
2023-03-31T21:33:56.267Z,96215.34
2023-03-31T21:36:25.461Z,96220.72
2023-03-31T21:38:54.380Z,96223.38
2023-03-31T21:41:28.350Z,96232.22
2023-03-31T21:43:56.831Z,96243.09
2023-03-31T21:46:31.677Z,96244.91
2023-03-31T21:48:59.612Z,96239.16
2023-03-31T21:51:28.434Z,96245.75
2023-03-31T21:53:56.323Z,96248.22
2023-03-31T21:56:28.151Z,96252.53
2023-03-31T21:58:55.849Z,96245.78
2023-03-31T22:01:23.605Z,96243.72
2023-03-31T22:03:51.999Z,96256.84
2023-03-31T22:06:20.091Z,96256.25
2023-03-31T22:08:47.702Z,96250.72
2023-03-31T22:11:15.858Z,96243.09
2023-03-31T22:13:43.388Z,96243.53
2023-03-31T22:16:18.350Z,96250.13
2023-03-31T22:18:47.525Z,96251.13
2023-03-31T22:21:21.965Z,96249.47
2023-03-31T22:23:53.190Z,96255.44
2023-03-31T22:26:21.891Z,96244.13
2023-03-31T22:28:50.345Z,96256.03
2023-03-31T22:31:18.337Z,96246.44
2023-03-31T22:33:46.278Z,96245.59
2023-03-31T22:36:14.348Z,96248.47
2023-03-31T22:38:41.942Z,96254.63
2023-03-31T22:41:09.475Z,96240.47
2023-03-31T22:43:36.973Z,96247.66
2023-03-31T22:46:06.869Z,96246.84
2023-03-31T22:48:35.035Z,96245.81
2023-03-31T22:51:06.276Z,96240.69
2023-03-31T22:53:34.087Z,96240.47
2023-03-31T22:56:11.888Z,96247.88
2023-03-31T22:58:39.651Z,96249.50
2023-03-31T23:01:09.583Z,96254.22
2023-03-31T23:03:37.541Z,96258.75
2023-03-31T23:06:06.094Z,96249.94
2023-03-31T23:08:35.695Z,96255.06
2023-03-31T23:11:07.475Z,96252.59
2023-03-31T23:13:35.963Z,96258.75
2023-03-31T23:16:10.687Z,96249.13
2023-03-31T23:18:44.221Z,96238.44
2023-03-31T23:21:13.884Z,96233.91
2023-03-31T23:23:42.228Z,96238.22
2023-03-31T23:26:10.185Z,96242.75
2023-03-31T23:28:38.055Z,96243.38
2023-03-31T23:31:06.116Z,96238.84
2023-03-31T23:33:33.720Z,96240.72
2023-03-31T23:36:04.487Z,96245.00
2023-03-31T23:38:32.869Z,96245.00
2023-03-31T23:41:02.182Z,96239.25
2023-03-31T23:43:30.196Z,96236.59
2023-03-31T23:45:57.780Z,96230.22
2023-03-31T23:48:25.321Z,96233.13
2023-03-31T23:50:52.877Z,96236.19
2023-03-31T23:53:20.497Z,96235.13
2023-03-31T23:56:01.248Z,96231.03
2023-03-31T23:58:29.385Z,96237.00
